Time;durP1;ratioP1;P1;durP2;ratioP2;P2;SDS_P1;SDS_P2;PMS_P1;PMS_P2;Temp;Humidity;BMP_temperature;BMP_pressure;BME280_temperature;BME280_humidity;BME280_pressure;Samples;Min_cycle;Max_cycle;Signal;HPM_P1;HPM_P2
2023/08/06 00:00:30;;;;;;;;;;;13.90;99.90;;;;;;5115335;28;19924;-68
2023/08/06 00:02:56;;;;;;;;;;;14.00;99.90;;;;;;5095327;28;20401;-68
2023/08/06 00:05:23;;;;;;;;;;;14.00;99.90;;;;;;5097585;28;19923;-68
2023/08/06 00:07:50;;;;;;;;;;;13.90;99.90;;;;;;5114782;28;20291;-68
2023/08/06 00:10:17;;;;;;;;;;;13.90;99.90;;;;;;5097139;28;19923;-68
2023/08/06 00:12:45;;;;;;;;;;;14.00;99.90;;;;;;5097428;28;19924;-68
2023/08/06 00:15:12;;;;;;;;;;;14.00;99.90;;;;;;5114728;28;19927;-68
2023/08/06 00:17:39;;;;;;;;;;;13.90;99.90;;;;;;5115363;28;19923;-68
2023/08/06 00:20:07;;;;;;;;;;;14.00;99.90;;;;;;5114036;28;19932;-68
2023/08/06 00:22:34;;;;;;;;;;;14.00;99.90;;;;;;5096232;28;20403;-68
2023/08/06 00:25:01;;;;;;;;;;;14.00;99.90;;;;;;5096989;28;19934;-68
2023/08/06 00:27:27;;;;;;;;;;;14.00;99.90;;;;;;5115008;28;19924;-68
2023/08/06 00:29:55;;;;;;;;;;;14.00;99.90;;;;;;5096544;28;19939;-69
2023/08/06 00:32:22;;;;;;;;;;;14.00;99.90;;;;;;5114984;28;19935;-68
2023/08/06 00:34:50;;;;;;;;;;;14.00;99.90;;;;;;5114306;28;20421;-69
2023/08/06 00:37:17;;;;;;;;;;;14.00;99.90;;;;;;5114873;28;20020;-69
2023/08/06 00:39:44;;;;;;;;;;;14.00;99.90;;;;;;5114717;28;19969;-69
2023/08/06 00:42:11;;;;;;;;;;;14.00;99.90;;;;;;5096261;28;19945;-69
2023/08/06 00:44:38;;;;;;;;;;;14.00;99.90;;;;;;5114565;28;19977;-69
2023/08/06 00:47:07;;;;;;;;;;;14.00;99.90;;;;;;5096687;28;19924;-69
2023/08/06 00:49:34;;;;;;;;;;;14.00;99.90;;;;;;5114160;28;19924;-69
2023/08/06 00:52:00;;;;;;;;;;;14.00;99.90;;;;;;5114646;28;19924;-69
2023/08/06 00:54:28;;;;;;;;;;;14.00;99.90;;;;;;5112243;28;19931;-69
2023/08/06 00:56:55;;;;;;;;;;;14.00;99.90;;;;;;5095447;28;19924;-68
2023/08/06 00:59:22;;;;;;;;;;;14.00;99.90;;;;;;5096612;28;19930;-68
2023/08/06 01:01:49;;;;;;;;;;;13.90;99.90;;;;;;5114560;28;19924;-69
2023/08/06 01:04:18;;;;;;;;;;;14.00;99.90;;;;;;5095413;28;20006;-69
2023/08/06 01:06:47;;;;;;;;;;;14.00;99.90;;;;;;5114087;28;20379;-69
2023/08/06 01:09:21;;;;;;;;;;;14.00;99.90;;;;;;5114280;28;19930;-68
2023/08/06 01:11:53;;;;;;;;;;;14.00;99.90;;;;;;5093517;28;20372;-68
2023/08/06 01:14:24;;;;;;;;;;;14.00;99.90;;;;;;5114375;28;19927;-68
2023/08/06 01:16:51;;;;;;;;;;;14.00;99.90;;;;;;5095796;28;19939;-68
2023/08/06 01:19:20;;;;;;;;;;;14.00;99.90;;;;;;5113802;28;20314;-68
2023/08/06 01:21:48;;;;;;;;;;;14.00;99.90;;;;;;5113890;28;19924;-68
2023/08/06 01:24:14;;;;;;;;;;;14.00;99.90;;;;;;5095389;28;19996;-68
2023/08/06 01:26:45;;;;;;;;;;;14.00;99.90;;;;;;5113802;28;19923;-68
2023/08/06 01:29:16;;;;;;;;;;;14.00;99.90;;;;;;5113789;28;19924;-68
2023/08/06 01:31:44;;;;;;;;;;;14.00;99.90;;;;;;5095052;28;19931;-67
2023/08/06 01:34:14;;;;;;;;;;;14.00;99.90;;;;;;5095648;28;19977;-68
2023/08/06 01:36:41;;;;;;;;;;;14.00;99.90;;;;;;5095310;28;19930;-68
2023/08/06 01:39:10;;;;;;;;;;;14.00;99.90;;;;;;5113058;28;20011;-68
2023/08/06 01:41:36;;;;;;;;;;;14.00;99.90;;;;;;5113650;28;19932;-68
2023/08/06 01:44:03;;;;;;;;;;;14.00;99.90;;;;;;5113460;28;19927;-68
2023/08/06 01:46:30;;;;;;;;;;;14.00;99.90;;;;;;5112813;28;19935;-68
2023/08/06 01:48:57;;;;;;;;;;;14.00;99.90;;;;;;5113425;28;19992;-67
2023/08/06 01:51:24;;;;;;;;;;;14.00;99.90;;;;;;5095194;28;20008;-67
2023/08/06 01:53:50;;;;;;;;;;;14.00;99.90;;;;;;5094872;28;19924;-68
2023/08/06 01:56:18;;;;;;;;;;;14.00;99.90;;;;;;5113225;28;19928;-68
2023/08/06 01:58:45;;;;;;;;;;;14.00;99.90;;;;;;5113241;28;20006;-69
2023/08/06 02:01:12;;;;;;;;;;;14.00;99.90;;;;;;5094546;28;19923;-68
2023/08/06 02:03:38;;;;;;;;;;;14.00;99.90;;;;;;5113409;28;19924;-68
2023/08/06 02:06:05;;;;;;;;;;;14.00;99.90;;;;;;5113256;28;19923;-68
2023/08/06 02:08:32;;;;;;;;;;;14.00;99.90;;;;;;5112893;28;19930;-68
2023/08/06 02:10:59;;;;;;;;;;;14.00;99.90;;;;;;5095325;28;19923;-68
2023/08/06 02:13:27;;;;;;;;;;;14.00;99.90;;;;;;5112486;28;19923;-68
2023/08/06 02:15:54;;;;;;;;;;;14.00;99.90;;;;;;5092575;28;20276;-68
2023/08/06 02:18:20;;;;;;;;;;;14.00;99.90;;;;;;5094528;28;19931;-68
2023/08/06 02:20:55;;;;;;;;;;;14.00;99.90;;;;;;5110356;28;19923;-67
2023/08/06 02:23:22;;;;;;;;;;;14.00;99.90;;;;;;5113103;28;19924;-67
2023/08/06 02:25:49;;;;;;;;;;;14.00;99.90;;;;;;5113147;28;19990;-67
2023/08/06 02:28:15;;;;;;;;;;;14.00;99.90;;;;;;5093440;28;19932;-68
2023/08/06 02:30:51;;;;;;;;;;;14.00;99.90;;;;;;5095165;28;20336;-67
2023/08/06 02:33:18;;;;;;;;;;;13.90;99.90;;;;;;5093422;28;20379;-67
2023/08/06 02:35:45;;;;;;;;;;;14.00;99.90;;;;;;5094016;28;19976;-67
2023/08/06 02:38:11;;;;;;;;;;;14.00;99.90;;;;;;5094840;28;20341;-67
2023/08/06 02:40:43;;;;;;;;;;;14.00;99.90;;;;;;5112737;28;19969;-67
2023/08/06 02:43:10;;;;;;;;;;;14.00;99.90;;;;;;5115098;28;20345;-69
2023/08/06 02:45:37;;;;;;;;;;;14.00;99.90;;;;;;5096627;28;20007;-68
2023/08/06 02:48:05;;;;;;;;;;;13.90;99.90;;;;;;5117074;28;19932;-69
2023/08/06 02:50:32;;;;;;;;;;;14.00;99.90;;;;;;5114407;28;20315;-69
2023/08/06 02:52:59;;;;;;;;;;;13.90;99.90;;;;;;5098936;28;19927;-68
2023/08/06 02:55:25;;;;;;;;;;;14.00;99.90;;;;;;5098079;28;19932;-68
2023/08/06 02:57:52;;;;;;;;;;;14.00;99.90;;;;;;5116805;28;20371;-68
2023/08/06 03:00:19;;;;;;;;;;;14.00;99.90;;;;;;5116924;28;19931;-67
2023/08/06 03:02:46;;;;;;;;;;;14.00;99.90;;;;;;5098322;28;20345;-68
2023/08/06 03:05:14;;;;;;;;;;;14.00;99.90;;;;;;5098769;28;19928;-67
2023/08/06 03:07:41;;;;;;;;;;;14.00;99.90;;;;;;5116646;28;19931;-68
2023/08/06 03:10:08;;;;;;;;;;;14.00;99.90;;;;;;5097975;28;20367;-68
2023/08/06 03:12:35;;;;;;;;;;;14.00;99.90;;;;;;5116484;28;19924;-68
2023/08/06 03:15:01;;;;;;;;;;;14.00;99.90;;;;;;5098391;28;19924;-68
2023/08/06 03:17:28;;;;;;;;;;;14.00;99.90;;;;;;5097656;28;19931;-67
2023/08/06 03:19:55;;;;;;;;;;;14.10;99.90;;;;;;5116459;28;20314;-67
2023/08/06 03:22:23;;;;;;;;;;;14.00;99.90;;;;;;5098377;28;19927;-67
2023/08/06 03:24:51;;;;;;;;;;;14.10;99.90;;;;;;5115844;28;19927;-68
2023/08/06 03:27:17;;;;;;;;;;;14.10;99.90;;;;;;5098274;28;19923;-67
2023/08/06 03:29:45;;;;;;;;;;;14.00;99.90;;;;;;5098197;28;19985;-68
2023/08/06 03:32:11;;;;;;;;;;;14.10;99.90;;;;;;5115633;28;19923;-68
2023/08/06 03:34:38;;;;;;;;;;;14.10;99.90;;;;;;5098117;28;19927;-67
2023/08/06 03:37:05;;;;;;;;;;;14.10;99.90;;;;;;5097987;28;19972;-67
2023/08/06 03:39:33;;;;;;;;;;;14.10;99.90;;;;;;5097393;28;19927;-67
2023/08/06 03:42:00;;;;;;;;;;;14.10;99.90;;;;;;5098151;28;19947;-67
2023/08/06 03:44:28;;;;;;;;;;;14.10;99.90;;;;;;5115642;28;19923;-67
2023/08/06 03:46:55;;;;;;;;;;;14.10;99.90;;;;;;5096980;28;19980;-67
2023/08/06 03:49:21;;;;;;;;;;;14.10;99.90;;;;;;5097785;28;19924;-67
2023/08/06 03:51:48;;;;;;;;;;;14.20;99.90;;;;;;5113138;28;20306;-67
2023/08/06 03:54:15;;;;;;;;;;;14.10;99.90;;;;;;5097434;28;19938;-67
2023/08/06 03:56:43;;;;;;;;;;;14.20;99.90;;;;;;5097219;28;19969;-67
2023/08/06 03:59:09;;;;;;;;;;;14.10;99.90;;;;;;5114800;28;20376;-67
2023/08/06 04:01:36;;;;;;;;;;;14.20;99.90;;;;;;5097504;28;19924;-67
2023/08/06 04:04:03;;;;;;;;;;;14.10;99.90;;;;;;5115258;28;19924;-67
2023/08/06 04:06:30;;;;;;;;;;;14.20;99.90;;;;;;5114892;28;20440;-67
2023/08/06 04:08:56;;;;;;;;;;;14.20;99.90;;;;;;5115101;28;19931;-67
2023/08/06 04:11:23;;;;;;;;;;;14.10;99.90;;;;;;5115429;28;20287;-68
2023/08/06 04:13:51;;;;;;;;;;;14.20;99.90;;;;;;5114473;28;19924;-67
2023/08/06 04:16:18;;;;;;;;;;;14.20;99.90;;;;;;5115117;28;20291;-67
2023/08/06 04:18:45;;;;;;;;;;;14.20;99.90;;;;;;5114952;28;19928;-68
2023/08/06 04:21:12;;;;;;;;;;;14.20;99.90;;;;;;5114779;28;19931;-67
2023/08/06 04:23:39;;;;;;;;;;;14.20;99.90;;;;;;5115140;28;19924;-67
2023/08/06 04:26:05;;;;;;;;;;;14.30;99.90;;;;;;5115119;28;20345;-67
2023/08/06 04:28:32;;;;;;;;;;;14.20;99.90;;;;;;5114485;28;19931;-68
2023/08/06 04:31:01;;;;;;;;;;;14.20;99.90;;;;;;5114905;28;19938;-68
2023/08/06 04:33:27;;;;;;;;;;;14.20;99.90;;;;;;5096924;28;19924;-67
2023/08/06 04:35:55;;;;;;;;;;;14.30;99.90;;;;;;5114292;28;19924;-68
2023/08/06 04:38:21;;;;;;;;;;;14.30;99.90;;;;;;5096610;28;19932;-68
2023/08/06 04:40:48;;;;;;;;;;;14.30;99.90;;;;;;5114839;28;19928;-68
2023/08/06 04:43:15;;;;;;;;;;;14.30;99.90;;;;;;5113969;28;20007;-68
2023/08/06 04:45:46;;;;;;;;;;;14.30;99.90;;;;;;5114690;28;19931;-68
2023/08/06 04:48:14;;;;;;;;;;;14.30;99.90;;;;;;5096224;28;19927;-68
2023/08/06 04:50:44;;;;;;;;;;;14.30;99.90;;;;;;5114615;28;19924;-68
2023/08/06 04:53:10;;;;;;;;;;;14.30;99.90;;;;;;5096687;28;20360;-67
2023/08/06 04:55:37;;;;;;;;;;;14.30;99.90;;;;;;5095971;28;19928;-67
2023/08/06 04:58:04;;;;;;;;;;;14.30;99.90;;;;;;5114566;28;19924;-67
2023/08/06 05:00:31;;;;;;;;;;;14.30;99.90;;;;;;5096065;28;19931;-67
2023/08/06 05:02:57;;;;;;;;;;;14.30;99.90;;;;;;5113990;28;19977;-66
2023/08/06 05:05:26;;;;;;;;;;;14.30;99.90;;;;;;5113539;28;19924;-66
2023/08/06 05:07:52;;;;;;;;;;;14.30;99.90;;;;;;5114413;28;19928;-67
2023/08/06 05:10:19;;;;;;;;;;;14.30;99.90;;;;;;5093226;28;20003;-66
2023/08/06 05:12:46;;;;;;;;;;;14.30;99.90;;;;;;5114186;28;19965;-67
2023/08/06 05:15:13;;;;;;;;;;;14.30;99.90;;;;;;5093902;28;19931;-68
2023/08/06 05:17:39;;;;;;;;;;;14.20;99.90;;;;;;5095204;28;20371;-68
2023/08/06 05:20:06;;;;;;;;;;;14.20;99.90;;;;;;5095736;28;19973;-67
2023/08/06 05:22:35;;;;;;;;;;;14.30;99.90;;;;;;5114046;28;19932;-68
2023/08/06 05:25:02;;;;;;;;;;;14.30;99.90;;;;;;5113682;28;19924;-68
2023/08/06 05:27:28;;;;;;;;;;;14.30;99.90;;;;;;5113912;28;19977;-68
2023/08/06 05:29:56;;;;;;;;;;;14.40;99.90;;;;;;5113977;28;19924;-68
2023/08/06 05:32:22;;;;;;;;;;;14.40;99.90;;;;;;5113538;28;20334;-68
2023/08/06 05:34:49;;;;;;;;;;;14.40;99.90;;;;;;5095817;28;20291;-66
2023/08/06 05:37:16;;;;;;;;;;;14.50;99.90;;;;;;5094945;28;19977;-67
2023/08/06 05:39:44;;;;;;;;;;;14.50;99.90;;;;;;5113655;28;19924;-68
2023/08/06 05:42:11;;;;;;;;;;;14.60;99.90;;;;;;5113571;28;19994;-67
2023/08/06 05:44:37;;;;;;;;;;;14.60;99.90;;;;;;5094657;28;19931;-68
2023/08/06 05:47:04;;;;;;;;;;;14.70;99.90;;;;;;5111513;28;19927;-68
2023/08/06 05:49:31;;;;;;;;;;;14.80;99.90;;;;;;5094706;28;20006;-68
2023/08/06 05:51:58;;;;;;;;;;;14.90;99.90;;;;;;5094929;28;19928;-68
2023/08/06 05:54:25;;;;;;;;;;;15.00;99.90;;;;;;5095417;28;20296;-68
2023/08/06 05:56:53;;;;;;;;;;;15.20;99.90;;;;;;5113497;28;19924;-68
2023/08/06 05:59:20;;;;;;;;;;;15.30;99.90;;;;;;5112810;28;19931;-68
2023/08/06 06:01:46;;;;;;;;;;;15.40;99.90;;;;;;5113341;28;19928;-68
2023/08/06 06:04:13;;;;;;;;;;;15.50;99.90;;;;;;5113305;28;19925;-68
2023/08/06 06:06:41;;;;;;;;;;;15.50;99.90;;;;;;5112643;28;20383;-68
2023/08/06 06:09:08;;;;;;;;;;;15.60;99.90;;;;;;5095148;28;19924;-67
2023/08/06 06:11:34;;;;;;;;;;;15.70;99.90;;;;;;5095210;28;20438;-67
2023/08/06 06:14:03;;;;;;;;;;;15.70;99.90;;;;;;5112570;28;19924;-68
2023/08/06 06:16:29;;;;;;;;;;;15.80;99.90;;;;;;5093989;28;19924;-67
2023/08/06 06:18:57;;;;;;;;;;;15.80;99.90;;;;;;5113070;28;20453;-67
2023/08/06 06:21:23;;;;;;;;;;;16.00;99.90;;;;;;5112262;28;20386;-67
2023/08/06 06:23:51;;;;;;;;;;;16.10;99.90;;;;;;5112967;28;20390;-68
2023/08/06 06:26:17;;;;;;;;;;;16.20;99.90;;;;;;5113003;28;20304;-67
2023/08/06 06:28:44;;;;;;;;;;;16.30;99.90;;;;;;5094358;28;19924;-68
2023/08/06 06:31:12;;;;;;;;;;;16.40;99.90;;;;;;5112994;28;19931;-67
2023/08/06 06:33:39;;;;;;;;;;;16.50;99.90;;;;;;5112402;28;19924;-67
2023/08/06 06:36:07;;;;;;;;;;;16.60;99.90;;;;;;5112668;28;19964;-67
2023/08/06 06:38:34;;;;;;;;;;;16.70;99.90;;;;;;5092816;28;19938;-67
2023/08/06 06:41:03;;;;;;;;;;;16.80;99.90;;;;;;5112278;28;20284;-68
2023/08/06 06:43:29;;;;;;;;;;;16.90;99.90;;;;;;5112865;28;19924;-68
2023/08/06 06:45:57;;;;;;;;;;;17.00;99.90;;;;;;5094402;28;19938;-68
2023/08/06 06:48:25;;;;;;;;;;;17.10;99.90;;;;;;5104375;28;19930;-69
2023/08/06 06:50:52;;;;;;;;;;;17.20;99.90;;;;;;5107072;28;20352;-68
2023/08/06 06:53:19;;;;;;;;;;;17.20;99.90;;;;;;5091971;28;19976;-69
2023/08/06 06:55:48;;;;;;;;;;;17.30;99.90;;;;;;5111053;28;20264;-68
2023/08/06 06:58:15;;;;;;;;;;;17.40;99.90;;;;;;5110020;28;20019;-68
2023/08/06 07:00:42;;;;;;;;;;;17.50;99.90;;;;;;5111956;28;19923;-68
2023/08/06 07:03:09;;;;;;;;;;;17.70;99.90;;;;;;5108162;28;20009;-69
2023/08/06 07:05:37;;;;;;;;;;;17.80;99.90;;;;;;5111862;28;20394;-68
2023/08/06 07:08:03;;;;;;;;;;;17.90;99.90;;;;;;5108641;28;20421;-69
2023/08/06 07:10:30;;;;;;;;;;;18.00;99.90;;;;;;5092971;28;20352;-68
2023/08/06 07:12:57;;;;;;;;;;;18.00;99.90;;;;;;5109554;28;19931;-69
2023/08/06 07:15:24;;;;;;;;;;;18.10;99.90;;;;;;5092161;28;19988;-69
2023/08/06 07:17:50;;;;;;;;;;;18.10;99.90;;;;;;5092052;28;19928;-68
2023/08/06 07:20:17;;;;;;;;;;;18.30;99.90;;;;;;5110635;28;19928;-69
2023/08/06 07:22:46;;;;;;;;;;;18.50;99.90;;;;;;5092963;28;20454;-68
2023/08/06 07:25:12;;;;;;;;;;;18.80;99.90;;;;;;5092762;28;20345;-68
2023/08/06 07:27:39;;;;;;;;;;;18.90;99.90;;;;;;5093121;28;19930;-68
2023/08/06 07:30:06;;;;;;;;;;;19.10;99.90;;;;;;5093495;28;19924;-69
2023/08/06 07:32:33;;;;;;;;;;;19.70;99.90;;;;;;5097269;28;19924;-69
2023/08/06 07:35:00;;;;;;;;;;;20.50;99.90;;;;;;5095735;28;19949;-69
2023/08/06 07:37:28;;;;;;;;;;;21.00;99.90;;;;;;5096245;28;20361;-69
2023/08/06 07:39:56;;;;;;;;;;;21.30;99.90;;;;;;5113181;28;19924;-69
2023/08/06 07:42:23;;;;;;;;;;;21.60;99.90;;;;;;5095417;28;19924;-68
2023/08/06 07:44:51;;;;;;;;;;;22.10;99.90;;;;;;5112706;28;19924;-68
2023/08/06 07:47:18;;;;;;;;;;;22.30;99.90;;;;;;5094431;28;19927;-68
2023/08/06 07:49:44;;;;;;;;;;;22.50;99.90;;;;;;5113764;28;19946;-69
2023/08/06 07:52:12;;;;;;;;;;;22.80;99.90;;;;;;5095082;28;19924;-69
2023/08/06 07:54:38;;;;;;;;;;;23.60;99.90;;;;;;5096127;28;19975;-69
2023/08/06 07:57:07;;;;;;;;;;;24.00;99.90;;;;;;5112659;28;20378;-68
2023/08/06 07:59:34;;;;;;;;;;;24.80;99.90;;;;;;5094431;28;19934;-68
2023/08/06 08:02:01;;;;;;;;;;;25.20;99.90;;;;;;5114009;28;19931;-69
2023/08/06 08:04:27;;;;;;;;;;;25.50;99.90;;;;;;5123039;27;19963;-69
2023/08/06 08:06:54;;;;;;;;;;;25.70;99.90;;;;;;5112164;28;19928;-69
2023/08/06 08:09:21;;;;;;;;;;;25.80;99.90;;;;;;5092328;28;19931;-69
2023/08/06 08:11:48;;;;;;;;;;;25.80;99.90;;;;;;5111952;28;20364;-69
2023/08/06 08:14:16;;;;;;;;;;;26.40;99.90;;;;;;5112512;28;19928;-69
2023/08/06 08:16:42;;;;;;;;;;;27.10;99.90;;;;;;5093972;28;20386;-69
2023/08/06 08:19:09;;;;;;;;;;;27.50;99.90;;;;;;5094358;28;19924;-70
2023/08/06 08:21:36;;;;;;;;;;;27.80;99.90;;;;;;5094573;28;19923;-69
2023/08/06 08:24:05;;;;;;;;;;;27.90;99.90;;;;;;5113428;28;19924;-69
2023/08/06 08:26:31;;;;;;;;;;;27.40;97.70;;;;;;5112282;28;19928;-70
2023/08/06 08:28:58;;;;;;;;;;;26.90;99.30;;;;;;5112843;28;19928;-69
2023/08/06 08:31:28;;;;;;;;;;;26.60;99.90;;;;;;5113267;28;19931;-69
2023/08/06 08:33:55;;;;;;;;;;;26.40;99.90;;;;;;5113146;28;19978;-69
2023/08/06 08:36:22;;;;;;;;;;;26.30;99.90;;;;;;5110914;28;20418;-69
2023/08/06 08:38:49;;;;;;;;;;;26.30;99.90;;;;;;5111349;28;19975;-70
2023/08/06 08:41:16;;;;;;;;;;;26.30;99.70;;;;;;5093060;28;19923;-69
2023/08/06 08:43:43;;;;;;;;;;;26.30;99.90;;;;;;5094750;28;19995;-69
2023/08/06 08:46:12;;;;;;;;;;;26.10;99.90;;;;;;5112838;28;20272;-69
2023/08/06 08:48:40;;;;;;;;;;;25.70;99.90;;;;;;5093723;28;19931;-69
2023/08/06 08:51:07;;;;;;;;;;;25.50;99.90;;;;;;5095490;28;19928;-67
2023/08/06 08:53:34;;;;;;;;;;;25.60;99.90;;;;;;5094037;28;19928;-68
2023/08/06 08:56:01;;;;;;;;;;;25.60;99.90;;;;;;5095460;28;19928;-67
2023/08/06 08:58:28;;;;;;;;;;;26.00;99.90;;;;;;5093214;28;19945;-69
2023/08/06 09:00:54;;;;;;;;;;;26.40;99.60;;;;;;5114037;28;20281;-68
2023/08/06 09:03:21;;;;;;;;;;;26.40;99.90;;;;;;5093644;28;19927;-68
2023/08/06 09:05:50;;;;;;;;;;;26.20;99.00;;;;;;5113808;28;19936;-69
2023/08/06 09:08:19;;;;;;;;;;;26.10;98.90;;;;;;5110908;28;19935;-69
2023/08/06 09:10:46;;;;;;;;;;;26.20;98.90;;;;;;5112501;28;19946;-69
2023/08/06 09:13:13;;;;;;;;;;;26.10;98.70;;;;;;5093126;28;19970;-69
2023/08/06 09:15:40;;;;;;;;;;;26.10;99.00;;;;;;5113084;28;19924;-69
2023/08/06 09:18:10;;;;;;;;;;;26.10;99.40;;;;;;5107708;28;19932;-69
2023/08/06 09:20:38;;;;;;;;;;;26.20;98.40;;;;;;5093739;28;19927;-68
2023/08/06 09:23:09;;;;;;;;;;;26.10;97.40;;;;;;5091604;28;19931;-68
2023/08/06 09:25:38;;;;;;;;;;;26.20;99.10;;;;;;5112260;28;19924;-67
2023/08/06 09:28:05;;;;;;;;;;;26.00;98.20;;;;;;5092307;28;19943;-68
2023/08/06 09:30:33;;;;;;;;;;;25.80;98.90;;;;;;5111752;28;19931;-68
2023/08/06 09:32:59;;;;;;;;;;;25.70;98.80;;;;;;5123688;27;19923;-69
2023/08/06 09:35:28;;;;;;;;;;;25.80;97.80;;;;;;5093672;28;19923;-70
2023/08/06 09:37:55;;;;;;;;;;;25.80;98.10;;;;;;5112446;28;19934;-69
2023/08/06 09:40:27;;;;;;;;;;;26.20;97.00;;;;;;5111514;28;19930;-68
2023/08/06 09:42:54;;;;;;;;;;;26.60;96.90;;;;;;5094194;28;19931;-68
2023/08/06 09:45:21;;;;;;;;;;;26.70;95.40;;;;;;5111086;28;20397;-69
2023/08/06 09:47:49;;;;;;;;;;;26.90;97.00;;;;;;5112582;28;19962;-69
2023/08/06 09:50:16;;;;;;;;;;;26.90;96.80;;;;;;5093438;28;19967;-69
2023/08/06 09:52:43;;;;;;;;;;;27.10;96.20;;;;;;5111873;28;19924;-69
2023/08/06 09:55:11;;;;;;;;;;;26.80;95.50;;;;;;5106062;28;20053;-68
2023/08/06 09:57:40;;;;;;;;;;;26.80;96.20;;;;;;5111970;28;20125;-68
2023/08/06 10:00:08;;;;;;;;;;;26.90;95.50;;;;;;5110719;28;19930;-68
2023/08/06 10:02:36;;;;;;;;;;;26.90;95.60;;;;;;5094524;28;19942;-69
2023/08/06 10:05:03;;;;;;;;;;;27.10;96.40;;;;;;5093407;28;19923;-68
2023/08/06 10:07:30;;;;;;;;;;;27.40;95.30;;;;;;5094758;28;20388;-69
2023/08/06 10:09:57;;;;;;;;;;;27.90;95.30;;;;;;5093593;28;19972;-69
2023/08/06 10:12:24;;;;;;;;;;;28.20;94.60;;;;;;5093391;28;20284;-70
2023/08/06 10:14:54;;;;;;;;;;;28.10;94.70;;;;;;5093500;28;20287;-69
2023/08/06 10:17:21;;;;;;;;;;;28.20;94.20;;;;;;5110165;28;19924;-69
2023/08/06 10:19:48;;;;;;;;;;;28.40;94.20;;;;;;5092643;28;19924;-69
2023/08/06 10:22:16;;;;;;;;;;;28.10;92.80;;;;;;5092319;28;20299;-69
2023/08/06 10:24:46;;;;;;;;;;;28.30;92.80;;;;;;5112193;28;19924;-69
2023/08/06 10:27:13;;;;;;;;;;;28.60;93.60;;;;;;5091131;28;19923;-69
2023/08/06 10:29:40;;;;;;;;;;;29.00;94.00;;;;;;5111790;28;19940;-69
2023/08/06 10:32:08;;;;;;;;;;;29.00;93.60;;;;;;5111059;28;19924;-69
2023/08/06 10:34:49;;;;;;;;;;;29.20;92.20;;;;;;5111656;28;19992;-70
2023/08/06 10:37:16;;;;;;;;;;;29.80;93.20;;;;;;5091212;28;19923;-70
2023/08/06 10:39:48;;;;;;;;;;;29.80;91.90;;;;;;5111226;28;19969;-69
2023/08/06 10:42:20;;;;;;;;;;;29.10;91.90;;;;;;5093483;28;19947;-69
2023/08/06 10:45:01;;;;;;;;;;;29.00;92.20;;;;;;5093752;28;19931;-69
2023/08/06 10:47:30;;;;;;;;;;;28.40;92.60;;;;;;5106328;28;19931;-68
2023/08/06 10:49:56;;;;;;;;;;;27.90;92.90;;;;;;5090689;28;19924;-68
2023/08/06 10:52:23;;;;;;;;;;;27.70;93.80;;;;;;5111505;28;19976;-68
2023/08/06 10:54:50;;;;;;;;;;;27.20;93.00;;;;;;5107657;28;19932;-67
2023/08/06 10:57:17;;;;;;;;;;;26.90;93.60;;;;;;5112142;28;19927;-68
2023/08/06 10:59:44;;;;;;;;;;;26.60;94.00;;;;;;5108641;28;19924;-68
2023/08/06 11:02:10;;;;;;;;;;;26.40;94.50;;;;;;5108615;28;20282;-70
2023/08/06 11:04:38;;;;;;;;;;;26.30;94.40;;;;;;5095150;28;20276;-70
2023/08/06 11:07:07;;;;;;;;;;;26.10;94.70;;;;;;5096360;28;20374;-70
2023/08/06 11:09:34;;;;;;;;;;;26.10;94.90;;;;;;5096456;28;20375;-70
2023/08/06 11:12:01;;;;;;;;;;;26.10;94.90;;;;;;5098099;28;19924;-71
2023/08/06 11:14:28;;;;;;;;;;;26.10;94.50;;;;;;5094933;28;19938;-70
2023/08/06 11:16:54;;;;;;;;;;;26.20;94.40;;;;;;5097369;28;19924;-71
2023/08/06 11:19:23;;;;;;;;;;;26.30;93.80;;;;;;5113758;28;19923;-71
2023/08/06 11:21:52;;;;;;;;;;;26.90;94.20;;;;;;5114798;28;20429;-68
2023/08/06 11:24:19;;;;;;;;;;;27.60;93.50;;;;;;5112267;28;19925;-69
2023/08/06 11:26:45;;;;;;;;;;;28.10;92.90;;;;;;5112211;28;19931;-68
2023/08/06 11:29:12;;;;;;;;;;;28.70;91.70;;;;;;5095583;28;20383;-68
2023/08/06 11:31:39;;;;;;;;;;;29.10;92.00;;;;;;5097778;28;20298;-69
2023/08/06 11:34:05;;;;;;;;;;;29.30;90.80;;;;;;5095030;28;19927;-69
2023/08/06 11:36:32;;;;;;;;;;;29.40;91.70;;;;;;5095725;28;20008;-69
2023/08/06 11:39:02;;;;;;;;;;;29.50;90.80;;;;;;5090055;28;19932;-70
2023/08/06 11:41:29;;;;;;;;;;;29.60;91.40;;;;;;5094321;28;20010;-69
2023/08/06 11:43:56;;;;;;;;;;;29.80;91.10;;;;;;5113367;27;19938;-69
2023/08/06 11:46:23;;;;;;;;;;;29.80;90.90;;;;;;5112964;28;20035;-69
2023/08/06 11:48:53;;;;;;;;;;;29.60;91.50;;;;;;5113853;28;19978;-69
2023/08/06 11:51:23;;;;;;;;;;;29.80;90.40;;;;;;5095550;28;20059;-70
2023/08/06 11:53:49;;;;;;;;;;;29.90;90.50;;;;;;5113337;28;19938;-69
2023/08/06 11:56:18;;;;;;;;;;;29.70;90.00;;;;;;5094138;28;20266;-68
2023/08/06 11:58:44;;;;;;;;;;;29.60;88.30;;;;;;5113547;28;19992;-68
2023/08/06 12:01:11;;;;;;;;;;;29.60;89.40;;;;;;5096210;28;19924;-69
2023/08/06 12:03:40;;;;;;;;;;;29.20;90.00;;;;;;5096341;28;19924;-68
2023/08/06 12:06:07;;;;;;;;;;;29.30;90.60;;;;;;5111691;28;19992;-68
2023/08/06 12:08:34;;;;;;;;;;;29.20;91.00;;;;;;5093245;28;19935;-68
2023/08/06 12:11:01;;;;;;;;;;;28.90;91.20;;;;;;5112332;28;19940;-68
2023/08/06 12:13:29;;;;;;;;;;;28.80;91.50;;;;;;5095607;28;20444;-68
2023/08/06 12:15:57;;;;;;;;;;;28.80;92.00;;;;;;5095105;28;19941;-68
2023/08/06 12:18:24;;;;;;;;;;;28.60;91.40;;;;;;5112879;28;20302;-69
2023/08/06 12:20:50;;;;;;;;;;;28.80;92.00;;;;;;5094397;28;19923;-66
2023/08/06 12:23:17;;;;;;;;;;;28.30;91.80;;;;;;5095418;28;19932;-68
2023/08/06 12:25:44;;;;;;;;;;;28.30;91.70;;;;;;5095146;28;20299;-68
2023/08/06 12:28:12;;;;;;;;;;;28.40;92.00;;;;;;5113343;28;20559;-68
2023/08/06 12:30:44;;;;;;;;;;;28.30;92.20;;;;;;5114425;28;20262;-68
2023/08/06 12:33:10;;;;;;;;;;;28.20;91.70;;;;;;5111707;28;20388;-68
2023/08/06 12:35:38;;;;;;;;;;;27.70;91.80;;;;;;5114443;28;19927;-68
2023/08/06 12:38:04;;;;;;;;;;;27.90;92.60;;;;;;5111433;28;19992;-68
2023/08/06 12:40:31;;;;;;;;;;;27.70;92.40;;;;;;5094066;28;19923;-68
2023/08/06 12:42:59;;;;;;;;;;;27.80;92.60;;;;;;5109953;28;19924;-69
2023/08/06 12:45:25;;;;;;;;;;;27.40;92.30;;;;;;5112003;28;19962;-68
2023/08/06 12:47:54;;;;;;;;;;;27.60;92.70;;;;;;5111623;28;19928;-69
2023/08/06 12:50:20;;;;;;;;;;;27.70;93.20;;;;;;5113920;28;19923;-69
2023/08/06 12:52:47;;;;;;;;;;;27.90;92.40;;;;;;5113033;28;19931;-66
2023/08/06 12:55:14;;;;;;;;;;;27.70;92.20;;;;;;5113147;28;19930;-67
2023/08/06 12:57:41;;;;;;;;;;;27.60;92.20;;;;;;5112038;28;19931;-67
2023/08/06 13:00:08;;;;;;;;;;;27.70;92.50;;;;;;5113673;28;19927;-68
2023/08/06 13:02:35;;;;;;;;;;;27.50;93.40;;;;;;5111681;28;20360;-68
2023/08/06 13:05:05;;;;;;;;;;;27.90;92.50;;;;;;5095506;28;19931;-68
2023/08/06 13:07:32;;;;;;;;;;;28.60;91.70;;;;;;5094264;28;19982;-68
2023/08/06 13:09:58;;;;;;;;;;;29.20;91.70;;;;;;5093915;28;19947;-68
2023/08/06 13:12:25;;;;;;;;;;;29.60;90.50;;;;;;5093082;28;19924;-69
2023/08/06 13:14:52;;;;;;;;;;;30.00;90.40;;;;;;5093644;28;20455;-68
2023/08/06 13:17:19;;;;;;;;;;;29.60;90.50;;;;;;5092575;28;19924;-67
2023/08/06 13:19:46;;;;;;;;;;;29.80;90.50;;;;;;5111322;28;19934;-68
2023/08/06 13:22:14;;;;;;;;;;;30.00;90.00;;;;;;5092926;28;19923;-68
2023/08/06 13:24:41;;;;;;;;;;;29.80;90.00;;;;;;5110606;28;20425;-68
2023/08/06 13:27:09;;;;;;;;;;;29.70;90.30;;;;;;5111324;28;20023;-68
2023/08/06 13:29:36;;;;;;;;;;;28.90;90.10;;;;;;5093454;28;19932;-68
2023/08/06 13:32:03;;;;;;;;;;;29.10;90.60;;;;;;5112446;28;20345;-68
2023/08/06 13:34:29;;;;;;;;;;;29.30;90.50;;;;;;5109842;28;19923;-68
2023/08/06 13:36:56;;;;;;;;;;;28.80;89.60;;;;;;5112509;28;19924;-68
2023/08/06 13:39:24;;;;;;;;;;;28.60;90.20;;;;;;5092432;28;19930;-68
2023/08/06 13:41:51;;;;;;;;;;;28.80;91.10;;;;;;5113239;28;19924;-67
2023/08/06 13:44:18;;;;;;;;;;;28.90;90.40;;;;;;5093265;28;19924;-68
2023/08/06 13:46:44;;;;;;;;;;;29.40;90.30;;;;;;5112997;28;20031;-69
2023/08/06 13:49:11;;;;;;;;;;;29.90;89.00;;;;;;5110918;28;19931;-68
2023/08/06 13:51:38;;;;;;;;;;;30.10;90.10;;;;;;5093871;28;19927;-68
2023/08/06 13:54:05;;;;;;;;;;;30.30;89.10;;;;;;5110743;28;19924;-68
2023/08/06 13:56:33;;;;;;;;;;;30.80;89.20;;;;;;5112341;28;19932;-69
2023/08/06 13:58:59;;;;;;;;;;;30.00;87.60;;;;;;5093811;28;19985;-67
2023/08/06 14:01:26;;;;;;;;;;;29.40;88.20;;;;;;5093240;28;19939;-68
2023/08/06 14:03:53;;;;;;;;;;;28.90;89.70;;;;;;5110060;28;19923;-68
2023/08/06 14:06:20;;;;;;;;;;;29.00;90.10;;;;;;5093227;28;19928;-68
2023/08/06 14:08:47;;;;;;;;;;;29.20;90.00;;;;;;5093824;28;20415;-68
2023/08/06 14:11:14;;;;;;;;;;;29.80;89.00;;;;;;5109716;28;19931;-68
2023/08/06 14:13:42;;;;;;;;;;;30.20;90.20;;;;;;5112682;27;19946;-67
2023/08/06 14:16:09;;;;;;;;;;;30.70;88.00;;;;;;5111588;28;19924;-68